createdAt,value
2023-05-01T05:18:04.571Z,75.40
2023-05-01T05:21:06.614Z,75.40
2023-05-01T05:24:08.266Z,75.30
2023-05-01T05:27:10.137Z,75.40
2023-05-01T05:30:12.141Z,75.40
2023-05-01T05:33:13.903Z,75.30
2023-05-01T05:36:15.668Z,75.20
2023-05-01T05:39:17.802Z,75.20
2023-05-01T05:42:19.526Z,75.20
2023-05-01T05:45:21.223Z,75.20
2023-05-01T05:48:23.215Z,75.20
2023-05-01T05:51:24.926Z,75.40
2023-05-01T05:54:26.681Z,75.40
2023-05-01T05:57:29.788Z,75.30
2023-05-01T06:00:31.513Z,75.40
2023-05-01T06:03:33.353Z,75.30
2023-05-01T06:06:35.305Z,75.30
2023-05-01T06:09:37.344Z,75.20
2023-05-01T06:12:41.497Z,75.00
2023-05-01T06:15:46.505Z,74.80
2023-05-01T06:18:48.187Z,74.80
2023-05-01T06:21:49.867Z,74.80
2023-05-01T06:24:51.947Z,74.80
2023-05-01T06:27:54.038Z,74.90
2023-05-01T06:30:55.992Z,74.80
2023-05-01T06:33:57.687Z,74.70
2023-05-01T06:36:59.423Z,74.40
2023-05-01T06:40:01.106Z,74.20
2023-05-01T06:43:03.512Z,74.20
2023-05-01T06:46:05.202Z,73.80
2023-05-01T06:49:06.932Z,73.30
2023-05-01T06:52:08.596Z,73.10
2023-05-01T06:55:10.437Z,73.10
2023-05-01T06:58:22.515Z,73.20
2023-05-01T07:01:25.704Z,73.10
2023-05-01T07:04:27.390Z,72.90
2023-05-01T07:07:30.842Z,72.70
2023-05-01T07:10:32.677Z,72.70
2023-05-01T07:13:34.319Z,72.60
2023-05-01T07:16:36.100Z,72.40
2023-05-01T07:19:38.034Z,72.30
2023-05-01T07:22:39.720Z,72.30
2023-05-01T07:25:41.439Z,72.30
2023-05-01T07:28:43.421Z,72.30
2023-05-01T07:31:46.089Z,71.80
2023-05-01T07:34:47.838Z,71.40
2023-05-01T07:37:52.822Z,71.10
2023-05-01T07:40:54.484Z,71.00
2023-05-01T07:43:58.114Z,70.90
2023-05-01T07:47:06.412Z,71.20
2023-05-01T07:50:11.805Z,71.50
2023-05-01T07:53:13.491Z,71.40
2023-05-01T07:56:15.265Z,71.40
2023-05-01T07:59:17.107Z,71.20
2023-05-01T08:02:18.787Z,71.30
2023-05-01T08:05:20.606Z,71.40
2023-05-01T08:08:22.571Z,71.60
2023-05-01T08:11:25.055Z,71.70
2023-05-01T08:14:26.713Z,71.60
2023-05-01T08:17:28.490Z,71.40
2023-05-01T08:20:30.326Z,71.20
2023-05-01T08:23:32.049Z,71.10
2023-05-01T08:26:33.761Z,71.10
2023-05-01T08:29:35.627Z,71.10
2023-05-01T08:32:37.380Z,71.20
2023-05-01T08:35:39.125Z,71.40
2023-05-01T08:38:41.050Z,71.40
2023-05-01T08:41:46.376Z,71.40
2023-05-01T08:44:48.399Z,71.20
2023-05-01T08:47:50.368Z,71.00
2023-05-01T08:50:52.122Z,70.90
2023-05-01T08:53:53.820Z,70.60
2023-05-01T08:56:55.709Z,70.40
2023-05-01T08:59:58.163Z,70.00
2023-05-01T09:03:01.324Z,69.70
2023-05-01T09:06:03.391Z,69.20
2023-05-01T09:09:05.718Z,68.60
2023-05-01T09:12:24.524Z,68.00
2023-05-01T09:15:27.024Z,67.30
2023-05-01T09:18:28.902Z,66.70
2023-05-01T09:21:32.046Z,66.60
2023-05-01T09:24:33.989Z,66.40
2023-05-01T09:27:39.516Z,66.30
2023-05-01T09:30:41.174Z,66.70
2023-05-01T09:33:54.001Z,67.10
2023-05-01T09:36:56.060Z,67.40
2023-05-01T09:40:15.486Z,67.10
2023-05-01T09:43:27.366Z,66.80
2023-05-01T09:46:29.320Z,66.30
2023-05-01T09:49:44.705Z,65.70
2023-05-01T09:52:50.043Z,65.00
2023-05-01T09:56:00.677Z,64.40
2023-05-01T09:59:22.859Z,64.00
2023-05-01T10:02:30.796Z,64.00
2023-05-01T10:05:43.128Z,64.40
2023-05-01T10:08:49.388Z,64.80
2023-05-01T10:11:57.255Z,65.30
2023-05-01T10:15:01.775Z,65.70
2023-05-01T10:18:08.934Z,65.90
2023-05-01T10:21:10.816Z,66.10
2023-05-01T10:24:12.682Z,66.00
2023-05-01T10:27:14.579Z,65.70
2023-05-01T10:30:16.304Z,65.10
2023-05-01T10:33:18.153Z,64.50
2023-05-01T10:36:28.710Z,64.10
2023-05-01T10:39:34.267Z,64.20
2023-05-01T10:42:54.481Z,64.20
2023-05-01T10:46:08.553Z,63.70
2023-05-01T10:49:12.747Z,63.60
2023-05-01T10:52:15.755Z,63.60
2023-05-01T10:55:36.303Z,63.40
2023-05-01T10:58:41.228Z,63.00
2023-05-01T11:01:47.658Z,62.90
2023-05-01T11:04:51.683Z,62.70
2023-05-01T11:08:34.198Z,62.50
2023-05-01T11:11:36.168Z,62.10
2023-05-01T11:15:05.875Z,61.90
2023-05-01T11:18:08.004Z,61.70
2023-05-01T11:21:09.704Z,61.80
2023-05-01T11:24:11.397Z,61.80
2023-05-01T11:27:16.064Z,61.20
2023-05-01T11:30:18.153Z,61.00
2023-05-01T11:33:25.761Z,60.40
2023-05-01T11:36:28.258Z,60.30
2023-05-01T11:39:30.041Z,59.90
2023-05-01T11:42:31.931Z,59.40
2023-05-01T11:45:34.880Z,59.40
2023-05-01T11:48:36.868Z,59.10
2023-05-01T11:51:38.574Z,58.30
2023-05-01T11:54:48.136Z,57.90
2023-05-01T11:57:53.386Z,57.80
2023-05-01T12:00:55.189Z,57.30
2023-05-01T12:03:57.360Z,57.50
2023-05-01T12:07:04.804Z,57.50
2023-05-01T12:10:07.601Z,56.70
2023-05-01T12:13:10.421Z,56.10
2023-05-01T12:16:12.113Z,56.00
2023-05-01T12:19:15.089Z,55.90
2023-05-01T12:22:16.866Z,55.80
2023-05-01T12:25:19.418Z,55.60
2023-05-01T12:28:21.460Z,55.50
2023-05-01T12:31:23.597Z,55.40
2023-05-01T12:34:29.934Z,55.20
2023-05-01T12:37:35.005Z,55.10
2023-05-01T12:40:36.685Z,55.00
2023-05-01T12:43:38.403Z,54.90
2023-05-01T12:46:40.237Z,55.20
2023-05-01T12:49:42.013Z,55.20
2023-05-01T12:52:43.780Z,55.00
2023-05-01T12:55:49.722Z,55.00
2023-05-01T12:58:53.516Z,55.00
2023-05-01T13:02:03.527Z,55.30
2023-05-01T13:05:09.838Z,55.40
2023-05-01T13:08:11.706Z,55.40
2023-05-01T13:11:17.410Z,55.20
2023-05-01T13:14:19.102Z,55.00
2023-05-01T13:17:28.668Z,54.60
2023-05-01T13:20:30.593Z,54.50
2023-05-01T13:23:32.356Z,54.30
2023-05-01T13:26:35.680Z,54.00
2023-05-01T13:29:38.546Z,53.70
2023-05-01T13:32:41.340Z,53.10
2023-05-01T13:35:43.206Z,52.50
2023-05-01T13:38:57.178Z,51.90
2023-05-01T13:42:03.013Z,51.20
2023-05-01T13:45:06.448Z,51.20
2023-05-01T13:48:11.786Z,51.60
2023-05-01T13:51:14.423Z,51.40
2023-05-01T13:54:16.566Z,51.30
2023-05-01T13:57:19.859Z,51.10
2023-05-01T14:00:24.016Z,50.90
2023-05-01T14:03:25.793Z,50.60
2023-05-01T14:06:28.793Z,50.00
2023-05-01T14:09:30.779Z,49.40
2023-05-01T14:12:32.542Z,49.10
2023-05-01T14:15:34.282Z,48.30
2023-05-01T14:18:36.492Z,47.50
2023-05-01T14:21:44.303Z,47.40
2023-05-01T14:24:46.020Z,47.40
2023-05-01T14:27:48.075Z,48.00
2023-05-01T14:30:50.921Z,47.50
2023-05-01T14:33:56.323Z,46.40
2023-05-01T14:36:58.529Z,46.30
2023-05-01T14:40:02.097Z,46.40
2023-05-01T14:43:04.063Z,46.60
2023-05-01T14:46:05.892Z,46.70
2023-05-01T14:49:07.906Z,46.90
2023-05-01T14:52:09.567Z,47.00
2023-05-01T14:55:11.920Z,47.20
2023-05-01T14:58:13.832Z,47.60
2023-05-01T15:01:15.741Z,48.20
2023-05-01T15:04:18.095Z,48.90
2023-05-01T15:07:20.035Z,49.50
2023-05-01T15:10:23.463Z,50.10
2023-05-01T15:13:25.136Z,50.50
2023-05-01T15:16:27.554Z,50.80
2023-05-01T15:19:29.261Z,50.90
2023-05-01T15:22:31.268Z,50.90
2023-05-01T15:25:33.024Z,50.90
2023-05-01T15:28:34.726Z,50.90
2023-05-01T15:31:36.617Z,50.70
2023-05-01T15:34:38.371Z,50.60
2023-05-01T15:37:40.335Z,50.70
2023-05-01T15:40:45.233Z,50.70
2023-05-01T15:43:46.966Z,50.70
2023-05-01T15:46:48.923Z,50.40
2023-05-01T15:49:50.795Z,50.10
2023-05-01T15:52:52.500Z,49.70
2023-05-01T15:55:58.169Z,49.50
2023-05-01T15:59:05.091Z,49.20
2023-05-01T16:02:08.727Z,49.10
2023-05-01T16:05:10.735Z,48.60
2023-05-01T16:08:12.863Z,47.60
2023-05-01T16:11:14.594Z,47.70
2023-05-01T16:14:16.316Z,47.20
2023-05-01T16:17:18.513Z,46.40
2023-05-01T16:20:20.258Z,45.30
2023-05-01T16:23:22.595Z,44.70
2023-05-01T16:26:28.023Z,44.00
2023-05-01T16:29:32.852Z,44.50
2023-05-01T16:32:34.896Z,44.70
2023-05-01T16:35:36.812Z,45.30
2023-05-01T16:38:39.699Z,45.60
2023-05-01T16:41:48.044Z,46.00
2023-05-01T16:44:49.853Z,46.50
2023-05-01T16:47:51.921Z,47.00
2023-05-01T16:50:53.619Z,47.40
2023-05-01T16:53:55.284Z,47.80
2023-05-01T16:56:57.256Z,47.90
2023-05-01T16:59:59.157Z,47.90
2023-05-01T17:03:02.219Z,48.30
2023-05-01T17:06:04.551Z,48.70
2023-05-01T17:09:09.536Z,49.00
2023-05-01T17:12:11.198Z,49.10
2023-05-01T17:15:12.853Z,49.30
2023-05-01T17:18:14.585Z,49.30
2023-05-01T17:21:16.385Z,48.80
2023-05-01T17:24:18.080Z,48.40
2023-05-01T17:27:19.869Z,48.30
2023-05-01T17:30:21.517Z,48.50
2023-05-01T17:33:23.248Z,48.80
2023-05-01T17:36:24.932Z,49.00
2023-05-01T17:39:27.503Z,49.20
2023-05-01T17:42:29.143Z,49.20
2023-05-01T17:45:30.858Z,49.20
2023-05-01T17:48:33.248Z,49.20
2023-05-01T17:51:35.120Z,49.40
2023-05-01T17:54:37.373Z,49.60
2023-05-01T17:57:40.034Z,49.50
2023-05-01T18:00:41.962Z,49.50
2023-05-01T18:03:43.720Z,49.50
2023-05-01T18:06:46.196Z,49.60
2023-05-01T18:09:47.949Z,49.80
2023-05-01T18:12:49.852Z,49.70
2023-05-01T18:15:52.058Z,49.70
2023-05-01T18:18:53.809Z,49.60
2023-05-01T18:21:55.481Z,49.70
2023-05-01T18:24:57.291Z,49.70
2023-05-01T18:27:59.545Z,50.00
2023-05-01T18:31:01.688Z,50.30
2023-05-01T18:34:04.061Z,50.40
2023-05-01T18:37:06.411Z,50.50
2023-05-01T18:40:09.604Z,50.80
2023-05-01T18:43:12.182Z,51.00
2023-05-01T18:46:13.894Z,51.30
2023-05-01T18:49:15.673Z,51.70
2023-05-01T18:52:17.351Z,52.00
2023-05-01T18:55:19.152Z,52.30
2023-05-01T18:58:21.398Z,52.50
2023-05-01T19:01:23.389Z,52.70
2023-05-01T19:04:25.152Z,52.80
2023-05-01T19:07:27.224Z,53.10
2023-05-01T19:10:28.920Z,53.40
2023-05-01T19:13:31.714Z,53.80
2023-05-01T19:16:33.569Z,54.10
2023-05-01T19:19:35.321Z,54.20
2023-05-01T19:22:37.051Z,54.30
2023-05-01T19:25:38.719Z,54.40
2023-05-01T19:28:44.807Z,54.40
2023-05-01T19:31:46.510Z,54.40
2023-05-01T19:34:48.560Z,54.30
2023-05-01T19:37:57.110Z,54.20
2023-05-01T19:40:58.774Z,54.20
2023-05-01T19:44:00.876Z,54.40
2023-05-01T19:47:02.815Z,54.50
2023-05-01T19:50:05.015Z,54.70
2023-05-01T19:53:06.800Z,55.00
2023-05-01T19:56:08.470Z,55.20
2023-05-01T19:59:10.592Z,55.50
2023-05-01T20:02:12.441Z,55.80
2023-05-01T20:05:14.335Z,56.20
2023-05-01T20:08:16.127Z,56.50
2023-05-01T20:11:18.102Z,56.80
2023-05-01T20:14:19.772Z,57.20
2023-05-01T20:17:21.704Z,57.60
2023-05-01T20:20:23.610Z,58.00
2023-05-01T20:23:25.354Z,58.20
2023-05-01T20:26:27.127Z,58.50
2023-05-01T20:29:28.946Z,58.70
2023-05-01T20:32:30.756Z,59.00
2023-05-01T20:35:33.713Z,59.20
2023-05-01T20:38:45.421Z,59.40
2023-05-01T20:41:47.703Z,59.40
2023-05-01T20:44:49.494Z,59.40
2023-05-01T20:47:51.558Z,59.60
2023-05-01T20:50:53.680Z,59.60
2023-05-01T20:53:55.366Z,59.70
2023-05-01T20:56:57.435Z,59.80
2023-05-01T21:00:00.894Z,59.90
2023-05-01T21:03:03.072Z,60.00
2023-05-01T21:06:04.804Z,60.10
2023-05-01T21:09:27.589Z,60.30
2023-05-01T21:12:29.281Z,60.60
